Time;durP1;ratioP1;P1;durP2;ratioP2;P2;SDS_P1;SDS_P2;PMS_P1;PMS_P2;Temp;Humidity;BMP_temperature;BMP_pressure;BME280_temperature;BME280_humidity;BME280_pressure;Samples;Min_cycle;Max_cycle;Signal;HPM_P1;HPM_P2
2021/05/10 00:01:32;;;;;;;3.40;2.00;;;20.30;72.80;;;;;;4940833;29;20534;-78
2021/05/10 00:04:00;;;;;;;2.57;1.80;;;20.30;72.80;;;;;;4939714;29;20526;-78
2021/05/10 00:06:27;;;;;;;2.90;1.80;;;20.30;72.80;;;;;;4940344;29;20546;-79
2021/05/10 00:08:55;;;;;;;2.33;2.13;;;20.30;72.80;;;;;;4940469;29;20483;-79
2021/05/10 00:11:23;;;;;;;2.00;1.80;;;20.30;72.80;;;;;;4939058;29;20526;-79
2021/05/10 00:13:53;;;;;;;2.90;1.77;;;20.30;72.80;;;;;;4939118;29;20535;-79
2021/05/10 00:16:20;;;;;;;2.40;2.13;;;20.30;72.90;;;;;;4939271;29;21024;-79
2021/05/10 00:18:48;;;;;;;2.63;1.80;;;20.20;72.80;;;;;;4940646;29;20475;-79
2021/05/10 00:21:15;;;;;;;1.95;1.63;;;20.20;72.80;;;;;;4937908;29;20513;-79
2021/05/10 00:23:42;;;;;;;2.10;1.87;;;20.30;72.60;;;;;;4940179;29;20192;-79
2021/05/10 00:26:09;;;;;;;2.93;1.93;;;20.20;72.50;;;;;;4939756;29;21032;-79
2021/05/10 00:28:37;;;;;;;6.27;1.90;;;20.20;72.60;;;;;;4936455;29;20949;-77
2021/05/10 00:31:04;;;;;;;2.00;1.80;;;20.20;72.70;;;;;;4934699;29;20503;-77
2021/05/10 00:33:32;;;;;;;4.07;2.30;;;20.10;72.80;;;;;;4935057;29;20550;-77
2021/05/10 00:35:59;;;;;;;4.23;2.07;;;20.10;72.80;;;;;;4935927;29;20462;-77
2021/05/10 00:38:26;;;;;;;2.63;1.90;;;20.10;72.90;;;;;;4935923;29;20514;-76
2021/05/10 00:40:53;;;;;;;2.90;1.80;;;20.00;72.80;;;;;;4934077;29;20562;-77
2021/05/10 00:43:20;;;;;;;2.10;1.90;;;20.00;72.80;;;;;;4935901;29;20531;-77
2021/05/10 00:45:47;;;;;;;2.10;1.70;;;20.00;72.90;;;;;;4934659;29;20546;-77
2021/05/10 00:48:17;;;;;;;2.27;1.93;;;20.00;72.80;;;;;;4935873;29;20444;-77
2021/05/10 00:50:45;;;;;;;1.80;1.70;;;19.90;72.80;;;;;;4934469;29;20479;-77
2021/05/10 00:53:12;;;;;;;2.10;1.90;;;19.90;72.80;;;;;;4935774;29;20498;-77
2021/05/10 00:55:39;;;;;;;2.30;2.10;;;19.90;72.90;;;;;;4935851;29;20448;-77
2021/05/10 00:58:06;;;;;;;5.20;1.87;;;19.90;72.90;;;;;;4935670;29;20466;-77
2021/05/10 01:00:37;;;;;;;2.23;1.80;;;19.90;72.90;;;;;;4936048;29;20467;-77
2021/05/10 01:03:05;;;;;;;4.40;1.97;;;19.90;73.00;;;;;;4936062;29;20861;-77
2021/05/10 01:05:33;;;;;;;5.00;2.70;;;19.90;73.10;;;;;;4934777;29;20452;-77
2021/05/10 01:08:00;;;;;;;4.83;2.30;;;19.80;73.70;;;;;;4934452;29;20475;-77
2021/05/10 01:10:27;;;;;;;2.77;1.50;;;19.80;73.10;;;;;;4933793;29;20505;-77
2021/05/10 01:12:54;;;;;;;4.80;2.30;;;19.80;73.10;;;;;;4935776;29;20444;-77
2021/05/10 01:15:23;;;;;;;2.00;1.90;;;19.80;73.20;;;;;;4934469;29;20449;-77
2021/05/10 01:17:52;;;;;;;2.27;1.90;;;19.80;73.10;;;;;;4937841;29;20243;-77
2021/05/10 01:20:21;;;;;;;2.20;1.80;;;19.80;73.20;;;;;;4939044;29;20472;-77
2021/05/10 01:22:50;;;;;;;4.53;2.63;;;19.80;73.20;;;;;;4937066;29;20544;-78
2021/05/10 01:25:19;;;;;;;2.73;2.00;;;19.70;73.30;;;;;;4943221;29;20468;-78
2021/05/10 01:27:47;;;;;;;3.20;2.07;;;19.70;73.30;;;;;;4942274;29;20540;-79
2021/05/10 01:30:20;;;;;;;4.23;2.00;;;19.70;73.50;;;;;;4943139;29;20882;-79
2021/05/10 01:32:48;;;;;;;1.97;1.77;;;19.70;73.50;;;;;;4944479;29;20480;-79
2021/05/10 01:35:17;;;;;;;2.70;2.13;;;19.70;73.60;;;;;;4943463;29;20510;-79
2021/05/10 01:37:44;;;;;;;3.23;2.03;;;19.70;73.60;;;;;;4945098;29;20479;-79
2021/05/10 01:40:13;;;;;;;5.50;2.00;;;19.60;73.60;;;;;;4947264;29;20833;-79
2021/05/10 01:42:40;;;;;;;2.27;1.87;;;19.60;73.80;;;;;;4946843;29;20471;-79
2021/05/10 01:45:09;;;;;;;2.00;1.80;;;19.60;73.90;;;;;;4945109;29;20463;-79
2021/05/10 01:47:37;;;;;;;2.07;1.87;;;19.60;74.00;;;;;;4945804;29;20456;-79
2021/05/10 01:50:12;;;;;;;2.37;1.93;;;19.50;74.00;;;;;;4945199;29;20460;-79
2021/05/10 01:52:39;;;;;;;2.83;1.80;;;19.50;74.10;;;;;;4941024;29;20487;-79
2021/05/10 01:55:08;;;;;;;2.87;2.07;;;19.50;74.30;;;;;;4942679;29;20452;-79
2021/05/10 01:57:36;;;;;;;2.53;2.27;;;19.50;74.40;;;;;;4942644;29;20476;-79
2021/05/10 02:00:08;;;;;;;2.07;1.87;;;19.40;74.40;;;;;;4940710;29;20483;-79
2021/05/10 02:02:35;;;;;;;4.67;2.00;;;19.40;74.50;;;;;;4940811;29;20446;-79
2021/05/10 02:05:13;;;;;;;2.30;2.10;;;19.40;74.60;;;;;;4942223;29;20454;-79
2021/05/10 02:07:42;;;;;;;2.50;2.30;;;19.30;74.70;;;;;;4942163;29;20997;-79
2021/05/10 02:10:12;;;;;;;2.23;2.03;;;19.30;74.90;;;;;;4940734;29;20539;-77
2021/05/10 02:12:40;;;;;;;1.97;1.77;;;19.20;75.00;;;;;;4936799;29;20456;-77
2021/05/10 02:15:10;;;;;;;2.43;2.23;;;19.20;75.10;;;;;;4936754;29;20819;-77
2021/05/10 02:17:38;;;;;;;2.43;2.00;;;19.20;75.20;;;;;;4936541;29;20895;-77
2021/05/10 02:20:08;;;;;;;2.40;2.00;;;19.20;75.40;;;;;;4937901;29;20464;-77
2021/05/10 02:22:35;;;;;;;4.50;1.93;;;19.10;75.50;;;;;;4936109;29;20459;-77
2021/05/10 02:25:04;;;;;;;2.20;2.00;;;19.00;75.50;;;;;;4938247;29;20447;-77
2021/05/10 02:27:31;;;;;;;2.93;2.00;;;19.00;75.70;;;;;;4937015;29;20471;-76
2021/05/10 02:29:59;;;;;;;3.10;2.10;;;19.00;75.90;;;;;;4936620;29;20832;-76
2021/05/10 02:32:26;;;;;;;6.00;2.37;;;18.90;76.00;;;;;;4936753;29;20487;-76
2021/05/10 02:34:54;;;;;;;2.40;2.20;;;18.80;76.10;;;;;;4937726;29;20774;-76
2021/05/10 02:37:21;;;;;;;2.30;2.10;;;18.80;76.30;;;;;;4937222;29;20973;-77
2021/05/10 02:39:48;;;;;;;3.20;2.30;;;18.70;76.40;;;;;;4937625;29;20464;-77
2021/05/10 02:42:15;;;;;;;2.40;2.13;;;18.70;76.50;;;;;;4937579;29;20487;-77
2021/05/10 02:44:42;;;;;;;2.80;2.60;;;18.70;76.70;;;;;;4937741;29;20896;-77
2021/05/10 02:47:10;;;;;;;3.37;2.00;;;18.60;76.80;;;;;;4936323;29;20492;-77
2021/05/10 02:49:38;;;;;;;2.90;2.53;;;18.50;76.90;;;;;;4934281;29;20472;-77
2021/05/10 02:52:05;;;;;;;2.60;2.40;;;18.50;77.00;;;;;;4937381;29;20475;-77
2021/05/10 02:54:32;;;;;;;2.87;2.60;;;18.50;77.30;;;;;;4936157;29;20898;-77
2021/05/10 02:56:59;;;;;;;2.80;2.20;;;18.40;77.40;;;;;;4937350;29;20440;-77
2021/05/10 02:59:26;;;;;;;2.83;2.53;;;18.30;77.50;;;;;;4935906;29;20495;-77
2021/05/10 03:01:54;;;;;;;3.40;3.10;;;18.20;77.60;;;;;;4937181;29;20468;-77
2021/05/10 03:04:22;;;;;;;4.30;2.80;;;18.20;77.80;;;;;;4935976;29;20953;-76
2021/05/10 03:06:49;;;;;;;3.00;2.80;;;18.20;78.00;;;;;;4937219;29;20456;-77
2021/05/10 03:09:16;;;;;;;5.32;3.70;;;18.10;78.10;;;;;;4936626;29;20512;-77
2021/05/10 03:11:43;;;;;;;5.90;4.50;;;18.10;78.90;;;;;;4936919;29;20203;-77
2021/05/10 03:14:10;;;;;;;3.57;3.10;;;18.10;78.80;;;;;;4933518;29;20953;-77
2021/05/10 03:16:37;;;;;;;2.87;2.20;;;18.00;78.90;;;;;;4935713;29;20480;-76
2021/05/10 03:19:09;;;;;;;2.80;2.37;;;18.00;79.00;;;;;;4935459;29;20494;-77
2021/05/10 03:21:37;;;;;;;2.75;2.50;;;17.90;79.10;;;;;;4935710;29;20448;-77
2021/05/10 03:24:06;;;;;;;2.50;2.30;;;18.00;80.30;;;;;;4936335;29;20662;-77
2021/05/10 03:26:33;;;;;;;5.33;3.30;;;18.00;80.00;;;;;;4937037;29;20446;-77
2021/05/10 03:29:00;;;;;;;3.77;2.77;;;18.00;80.00;;;;;;4938020;29;20566;-78
2021/05/10 03:31:27;;;;;;;2.87;2.57;;;17.90;80.00;;;;;;4938059;29;20482;-78
2021/05/10 03:33:55;;;;;;;3.10;2.30;;;17.90;80.00;;;;;;4938255;29;20452;-79
2021/05/10 03:36:22;;;;;;;2.70;2.43;;;17.90;80.20;;;;;;4939444;29;20455;-79
2021/05/10 03:38:50;;;;;;;7.43;2.77;;;17.90;80.20;;;;;;4939077;29;20436;-79
2021/05/10 03:41:17;;;;;;;7.23;4.97;;;17.90;80.40;;;;;;4938956;29;20530;-79
2021/05/10 03:43:44;;;;;;;11.40;7.40;;;17.90;80.50;;;;;;4937364;29;20491;-79
2021/05/10 03:46:11;;;;;;;3.77;3.37;;;17.90;80.70;;;;;;4938205;29;20456;-79
2021/05/10 03:48:38;;;;;;;4.10;3.43;;;17.90;80.80;;;;;;4939055;29;20444;-79
2021/05/10 03:51:06;;;;;;;3.43;2.90;;;17.90;80.80;;;;;;4939032;29;20503;-79
2021/05/10 03:53:33;;;;;;;4.10;3.70;;;17.90;80.90;;;;;;4938004;29;20539;-79
2021/05/10 03:56:01;;;;;;;7.27;2.80;;;17.90;81.00;;;;;;4937387;29;20511;-79
2021/05/10 03:58:28;;;;;;;2.93;2.63;;;17.90;81.10;;;;;;4937075;29;20452;-79
2021/05/10 04:00:55;;;;;;;8.63;3.17;;;17.90;81.20;;;;;;4937497;29;20543;-78
2021/05/10 04:03:26;;;;;;;4.23;2.60;;;17.90;81.30;;;;;;4938538;29;20440;-78
2021/05/10 04:06:11;;;;;;;9.07;5.83;;;17.90;81.40;;;;;;4933686;29;21005;-79
2021/05/10 04:13:33;;;;;;;5.30;4.30;;;17.90;81.50;;;;;;4906773;29;20563;-79
2021/05/10 04:14:12;;;;;;;5.80;3.93;;;17.90;81.60;;;;;;4938115;29;20452;-79
2021/05/10 04:16:39;;;;;;;3.70;3.30;;;17.90;81.70;;;;;;4937179;29;20491;-79
2021/05/10 04:19:07;;;;;;;3.87;2.43;;;17.90;81.70;;;;;;4938636;29;20464;-79
2021/05/10 04:21:34;;;;;;;4.47;2.57;;;17.90;81.80;;;;;;4937218;29;20527;-79
2021/05/10 04:24:01;;;;;;;4.70;2.67;;;17.90;81.90;;;;;;4940496;29;20544;-79
2021/05/10 04:26:29;;;;;;;6.40;2.60;;;17.90;82.00;;;;;;4940617;29;20442;-79
2021/05/10 04:28:56;;;;;;;5.43;3.60;;;18.00;82.20;;;;;;4938820;29;20535;-79
2021/05/10 04:31:23;;;;;;;2.60;2.33;;;18.00;82.30;;;;;;4937686;29;20559;-79
2021/05/10 04:33:50;;;;;;;4.63;3.47;;;18.00;82.40;;;;;;4937567;29;20483;-79
2021/05/10 04:36:17;;;;;;;2.83;2.53;;;18.00;82.50;;;;;;4938733;29;20516;-79
2021/05/10 04:38:45;;;;;;;3.83;2.43;;;18.00;82.60;;;;;;4937805;29;20465;-79
2021/05/10 04:41:12;;;;;;;2.50;2.10;;;18.00;82.70;;;;;;4938372;29;20607;-79
2021/05/10 04:43:40;;;;;;;2.97;2.77;;;18.00;82.70;;;;;;4937942;29;20519;-79
2021/05/10 04:46:10;;;;;;;2.43;2.20;;;18.00;82.80;;;;;;4939144;29;20452;-79
2021/05/10 04:48:37;;;;;;;4.40;2.43;;;18.10;82.90;;;;;;4939535;29;20528;-79
2021/05/10 04:51:05;;;;;;;4.23;2.50;;;18.10;82.90;;;;;;4937227;29;20877;-79
2021/05/10 04:53:32;;;;;;;4.00;2.70;;;18.10;83.00;;;;;;4941054;29;20454;-79
2021/05/10 04:55:59;;;;;;;2.97;2.67;;;18.10;83.00;;;;;;4942347;29;20460;-79
2021/05/10 04:58:26;;;;;;;5.20;2.47;;;18.20;83.10;;;;;;4940175;29;20445;-79
2021/05/10 05:00:54;;;;;;;3.93;2.57;;;18.20;83.10;;;;;;4941735;29;20542;-79
2021/05/10 05:03:21;;;;;;;3.50;2.60;;;18.20;83.70;;;;;;4941203;29;20458;-79
2021/05/10 05:05:48;;;;;;;5.30;3.43;;;18.30;83.20;;;;;;4939663;29;20858;-79
2021/05/10 05:08:15;;;;;;;3.08;2.50;;;18.30;83.30;;;;;;4940057;29;20453;-79
2021/05/10 05:10:42;;;;;;;2.30;2.00;;;18.40;84.10;;;;;;4940278;29;20216;-79
2021/05/10 05:13:09;;;;;;;3.90;3.00;;;18.40;83.80;;;;;;4940334;29;20448;-79
2021/05/10 05:15:37;;;;;;;2.73;2.30;;;18.40;83.80;;;;;;4940306;29;20450;-79
2021/05/10 05:18:06;;;;;;;4.20;3.10;;;18.50;83.80;;;;;;4941555;29;20449;-79
2021/05/10 05:20:37;;;;;;;4.00;3.03;;;18.50;84.10;;;;;;4941108;29;20275;-79
2021/05/10 05:23:16;;;;;;;2.80;2.50;;;18.60;84.10;;;;;;4941172;29;20818;-79
2021/05/10 05:25:43;;;;;;;4.57;2.83;;;18.60;84.00;;;;;;4942357;29;20782;-79
2021/05/10 05:28:10;;;;;;;2.43;2.00;;;18.70;84.00;;;;;;4942609;29;20426;-79
2021/05/10 05:30:37;;;;;;;2.77;2.50;;;18.70;83.90;;;;;;4941152;29;20543;-79
2021/05/10 05:33:05;;;;;;;2.60;2.40;;;18.80;83.90;;;;;;4942909;29;20977;-79
2021/05/10 05:35:33;;;;;;;2.67;2.27;;;18.80;83.80;;;;;;4943598;29;20467;-79
2021/05/10 05:38:00;;;;;;;8.87;3.40;;;18.90;83.90;;;;;;4940464;29;20934;-79
2021/05/10 05:40:27;;;;;;;3.93;3.17;;;18.90;83.80;;;;;;4939999;29;20464;-79
2021/05/10 05:42:54;;;;;;;5.53;2.83;;;19.00;83.80;;;;;;4939232;29;21056;-78
2021/05/10 05:45:22;;;;;;;2.83;2.20;;;19.00;83.70;;;;;;4937896;29;20890;-78
2021/05/10 05:47:49;;;;;;;2.43;2.20;;;19.10;83.70;;;;;;4938970;29;20535;-78
2021/05/10 05:50:18;;;;;;;2.83;2.30;;;19.20;83.70;;;;;;4938769;29;20534;-78
2021/05/10 05:52:45;;;;;;;3.30;2.37;;;19.20;83.70;;;;;;4938688;29;20471;-78
2021/05/10 05:55:14;;;;;;;4.50;2.93;;;19.30;83.70;;;;;;4938968;29;20428;-78
2021/05/10 05:57:43;;;;;;;4.13;3.00;;;19.50;83.90;;;;;;4938954;29;20515;-78
2021/05/10 06:00:12;;;;;;;2.83;2.50;;;19.80;84.00;;;;;;4938889;29;20802;-78
2021/05/10 06:02:41;;;;;;;2.90;2.50;;;20.10;84.00;;;;;;4936539;29;20464;-78
2021/05/10 06:05:11;;;;;;;3.80;2.57;;;20.30;83.90;;;;;;4939193;29;20428;-78
2021/05/10 06:07:48;;;;;;;3.70;2.67;;;20.60;83.90;;;;;;4937108;29;20457;-78
2021/05/10 06:10:18;;;;;;;2.87;2.67;;;21.00;84.00;;;;;;4938102;29;20224;-78
2021/05/10 06:12:48;;;;;;;2.83;2.47;;;21.40;84.00;;;;;;4940148;29;20462;-78
2021/05/10 06:15:16;;;;;;;4.97;2.73;;;21.70;83.90;;;;;;4940718;29;20416;-78
2021/05/10 06:17:44;;;;;;;5.95;3.97;;;21.90;83.60;;;;;;4938842;29;20850;-78
2021/05/10 06:20:13;;;;;;;2.40;2.00;;;22.10;83.20;;;;;;4940443;29;20243;-78
2021/05/10 06:22:42;;;;;;;3.00;2.40;;;22.20;82.90;;;;;;4939760;29;20448;-78
2021/05/10 06:25:12;;;;;;;2.87;2.23;;;22.30;82.80;;;;;;4938853;29;20486;-78
2021/05/10 06:27:40;;;;;;;2.97;2.77;;;22.60;82.60;;;;;;4941189;29;20828;-78
2021/05/10 06:30:09;;;;;;;5.50;2.20;;;22.80;82.50;;;;;;4939946;29;20547;-78
2021/05/10 06:32:37;;;;;;;4.73;2.20;;;23.00;82.00;;;;;;4939417;29;20521;-78
2021/05/10 06:35:05;;;;;;;2.80;2.30;;;23.20;81.60;;;;;;4940216;29;20672;-78
2021/05/10 06:37:32;;;;;;;4.83;2.80;;;23.20;81.30;;;;;;4940301;29;20950;-78
2021/05/10 06:40:00;;;;;;;3.50;2.17;;;23.40;81.20;;;;;;4941100;29;20631;-78
2021/05/10 06:42:28;;;;;;;2.00;1.90;;;23.50;80.90;;;;;;4941534;29;20476;-78
2021/05/10 06:44:57;;;;;;;3.60;2.20;;;23.80;80.60;;;;;;4939840;29;20995;-78
2021/05/10 06:47:26;;;;;;;2.87;2.30;;;23.90;80.20;;;;;;4941890;29;20546;-78
2021/05/10 06:49:53;;;;;;;5.17;2.37;;;24.00;80.00;;;;;;4941472;29;20462;-78
2021/05/10 06:52:20;;;;;;;2.70;1.70;;;24.00;79.70;;;;;;4941081;29;20482;-78
2021/05/10 06:54:48;;;;;;;3.53;2.20;;;24.20;79.50;;;;;;4941438;29;20568;-78
2021/05/10 06:57:15;;;;;;;3.10;2.23;;;24.30;79.30;;;;;;4941825;29;20438;-78
2021/05/10 06:59:44;;;;;;;3.10;2.10;;;24.30;79.10;;;;;;4939688;29;20506;-78
2021/05/10 07:02:12;;;;;;;2.40;1.70;;;24.40;79.10;;;;;;4941450;29;20449;-78
2021/05/10 07:04:39;;;;;;;3.67;2.10;;;24.50;78.70;;;;;;4940193;29;20443;-78
2021/05/10 07:07:06;;;;;;;2.20;2.00;;;24.70;78.50;;;;;;4941439;29;20491;-78
2021/05/10 07:09:33;;;;;;;2.70;2.07;;;24.90;78.20;;;;;;4941206;29;20821;-78
2021/05/10 07:12:00;;;;;;;2.17;1.97;;;25.00;77.90;;;;;;4940893;29;20976;-78
2021/05/10 07:14:27;;;;;;;5.60;2.03;;;24.90;77.60;;;;;;4940872;29;20522;-78
2021/05/10 07:16:55;;;;;;;2.50;1.83;;;24.90;77.30;;;;;;4939538;29;20521;-79
2021/05/10 07:19:23;;;;;;;3.37;2.33;;;24.80;76.00;;;;;;4939726;29;20215;-79
2021/05/10 07:21:50;;;;;;;2.23;1.90;;;24.80;76.20;;;;;;4939492;29;20455;-79
2021/05/10 07:24:18;;;;;;;2.30;2.10;;;24.70;76.00;;;;;;4940848;29;20542;-79
2021/05/10 07:26:46;;;;;;;5.00;2.00;;;24.80;75.90;;;;;;4941766;29;20503;-79
2021/05/10 07:29:13;;;;;;;2.60;2.10;;;24.90;75.70;;;;;;4939684;29;20992;-79
2021/05/10 07:31:40;;;;;;;2.37;2.17;;;24.90;75.10;;;;;;4940981;29;20479;-79
2021/05/10 07:34:08;;;;;;;3.50;2.33;;;24.70;74.80;;;;;;4940586;29;20498;-79
2021/05/10 07:36:37;;;;;;;2.77;2.10;;;24.70;74.90;;;;;;4940686;29;20459;-79
2021/05/10 07:39:05;;;;;;;2.30;2.03;;;24.60;74.70;;;;;;4939449;29;20474;-79
2021/05/10 07:41:32;;;;;;;2.67;2.30;;;24.50;74.40;;;;;;4939604;29;20532;-78
2021/05/10 07:44:00;;;;;;;3.90;2.10;;;24.40;74.30;;;;;;4941261;29;20430;-79
2021/05/10 07:46:27;;;;;;;3.50;2.50;;;24.30;74.10;;;;;;4940992;29;20462;-79
2021/05/10 07:48:54;;;;;;;3.17;2.20;;;24.30;74.00;;;;;;4940730;29;20453;-79
2021/05/10 07:51:22;;;;;;;3.00;2.40;;;24.20;73.90;;;;;;4941281;29;20459;-78
2021/05/10 07:53:50;;;;;;;3.33;1.90;;;24.20;73.80;;;;;;4939243;29;20448;-78
2021/05/10 07:56:17;;;;;;;3.77;2.60;;;24.20;73.90;;;;;;4938556;29;20442;-78
2021/05/10 07:58:46;;;;;;;3.20;2.90;;;24.20;74.00;;;;;;4938601;29;20964;-78
2021/05/10 08:01:14;;;;;;;1.77;1.67;;;24.20;74.10;;;;;;4940114;29;20483;-78
2021/05/10 08:03:41;;;;;;;2.20;1.90;;;24.30;74.20;;;;;;4938831;29;20451;-78
2021/05/10 08:06:09;;;;;;;2.47;2.27;;;24.40;74.10;;;;;;4939275;29;20489;-78
2021/05/10 08:08:37;;;;;;;3.17;2.40;;;24.50;73.90;;;;;;4938438;29;20459;-78
2021/05/10 08:11:05;;;;;;;2.83;2.50;;;24.60;73.70;;;;;;4940110;29;20451;-79
2021/05/10 08:13:32;;;;;;;3.33;2.13;;;24.80;73.50;;;;;;4940489;29;20434;-79
2021/05/10 08:15:59;;;;;;;3.50;2.00;;;25.00;73.40;;;;;;4939814;29;20442;-79
2021/05/10 08:18:27;;;;;;;3.47;2.50;;;25.10;73.20;;;;;;4939603;29;20509;-79
2021/05/10 08:20:57;;;;;;;2.20;1.77;;;25.30;73.00;;;;;;4939781;29;20509;-79
2021/05/10 08:23:25;;;;;;;4.63;2.60;;;25.30;72.70;;;;;;4939810;29;20634;-79
2021/05/10 08:25:53;;;;;;;3.33;2.00;;;25.50;72.70;;;;;;4940954;29;20435;-79
2021/05/10 08:28:20;;;;;;;2.70;2.00;;;25.80;72.70;;;;;;4943974;29;20498;-79
2021/05/10 08:30:48;;;;;;;3.93;2.07;;;26.00;72.60;;;;;;4944231;29;20466;-79
2021/05/10 08:33:15;;;;;;;5.17;2.17;;;26.20;72.20;;;;;;4944441;29;20529;-79
2021/05/10 08:35:42;;;;;;;2.00;1.80;;;26.50;72.20;;;;;;4944289;29;20428;-79
2021/05/10 08:38:09;;;;;;;3.63;1.90;;;26.70;71.80;;;;;;4944724;29;20448;-79
2021/05/10 08:40:37;;;;;;;2.70;1.40;;;26.90;71.40;;;;;;4942392;29;20492;-79
2021/05/10 08:43:17;;;;;;;3.63;1.67;;;26.90;71.10;;;;;;4942832;29;20444;-79
2021/05/10 08:45:47;;;;;;;2.80;1.93;;;26.90;70.90;;;;;;4944503;29;20463;-79
2021/05/10 08:48:14;;;;;;;3.33;2.10;;;26.90;70.90;;;;;;4943922;29;20450;-79
2021/05/10 08:50:42;;;;;;;2.30;1.60;;;26.70;70.90;;;;;;4943742;29;20465;-79
2021/05/10 08:53:11;;;;;;;3.20;2.00;;;26.60;70.60;;;;;;4942676;29;20995;-79
2021/05/10 08:55:39;;;;;;;6.53;2.70;;;26.50;70.50;;;;;;4942425;29;20938;-79
2021/05/10 08:58:08;;;;;;;3.43;2.57;;;26.30;69.50;;;;;;4944633;29;20195;-79
2021/05/10 09:00:50;;;;;;;3.63;2.13;;;26.20;69.60;;;;;;4944188;29;20460;-79
2021/05/10 09:03:17;;;;;;;2.43;2.20;;;26.10;69.70;;;;;;4943673;29;20537;-79
2021/05/10 09:05:46;;;;;;;2.13;1.93;;;25.90;69.80;;;;;;4942308;29;20456;-79
2021/05/10 09:08:14;;;;;;;2.40;1.97;;;25.80;69.80;;;;;;4942498;29;20455;-79
2021/05/10 09:10:43;;;;;;;3.50;2.00;;;25.80;69.90;;;;;;4943422;29;20470;-79
2021/05/10 09:13:11;;;;;;;4.63;1.93;;;25.80;70.10;;;;;;4944648;29;20983;-79
2021/05/10 09:15:38;;;;;;;4.93;1.80;;;25.70;70.00;;;;;;4943655;29;20529;-79
2021/05/10 09:18:07;;;;;;;3.07;2.00;;;25.70;70.80;;;;;;4942842;29;20490;-79
2021/05/10 09:20:36;;;;;;;3.70;2.10;;;25.70;70.00;;;;;;4943591;29;20992;-79
2021/05/10 09:23:05;;;;;;;2.93;2.13;;;25.70;70.10;;;;;;4942765;29;20456;-79
2021/05/10 09:25:33;;;;;;;2.60;2.30;;;25.70;70.20;;;;;;4943571;29;20842;-79
2021/05/10 09:28:13;;;;;;;3.33;1.80;;;25.80;70.30;;;;;;4943112;29;20466;-79
2021/05/10 09:30:41;;;;;;;7.50;2.67;;;26.00;70.60;;;;;;4943077;29;20489;-79
2021/05/10 09:33:16;;;;;;;4.43;1.97;;;26.00;70.60;;;;;;4942607;29;20546;-79
2021/05/10 09:35:44;;;;;;;5.23;2.20;;;26.00;70.40;;;;;;4942013;29;20447;-79
2021/05/10 09:38:11;;;;;;;2.63;1.73;;;26.10;70.30;;;;;;4940608;29;20550;-79
2021/05/10 09:40:45;;;;;;;2.37;2.10;;;26.20;70.20;;;;;;4942501;29;20475;-79
2021/05/10 09:43:14;;;;;;;2.60;1.90;;;26.40;70.30;;;;;;4942148;29;20862;-79
2021/05/10 09:45:45;;;;;;;4.23;2.20;;;26.50;69.90;;;;;;4942622;29;20446;-79
2021/05/10 09:48:21;;;;;;;2.20;1.75;;;26.70;70.00;;;;;;4941326;29;20489;-79
2021/05/10 09:50:51;;;;;;;2.77;1.80;;;26.80;69.10;;;;;;4942891;29;20207;-79
2021/05/10 09:53:29;;;;;;;4.63;2.23;;;27.00;69.20;;;;;;4942943;29;20471;-79
2021/05/10 09:55:57;;;;;;;2.67;1.70;;;27.00;68.90;;;;;;4942711;29;20905;-79
2021/05/10 09:58:35;;;;;;;3.17;2.00;;;27.10;68.90;;;;;;4942487;29;20478;-79
2021/05/10 10:01:03;;;;;;;2.50;1.70;;;27.10;68.70;;;;;;4941412;29;20533;-79
2021/05/10 10:03:33;;;;;;;3.90;1.63;;;27.20;68.70;;;;;;4943090;29;20448;-79
2021/05/10 10:06:03;;;;;;;1.97;1.80;;;27.30;68.40;;;;;;4943035;29;20428;-79
2021/05/10 10:08:30;;;;;;;2.70;1.80;;;27.40;68.30;;;;;;4941544;29;20464;-79
2021/05/10 10:10:59;;;;;;;2.50;2.07;;;27.40;67.90;;;;;;4941285;29;20851;-79
2021/05/10 10:13:28;;;;;;;2.77;1.83;;;27.50;67.80;;;;;;4943285;29;20467;-79
2021/05/10 10:15:57;;;;;;;2.67;1.83;;;27.60;67.60;;;;;;4941049;29;20452;-79
2021/05/10 10:18:26;;;;;;;2.20;2.00;;;27.60;67.50;;;;;;4940640;29;20459;-79
2021/05/10 10:20:56;;;;;;;4.27;2.00;;;27.60;67.30;;;;;;4942685;29;20460;-79
2021/05/10 10:23:25;;;;;;;2.73;2.40;;;27.70;67.30;;;;;;4941638;29;20454;-79
2021/05/10 10:25:55;;;;;;;3.60;2.03;;;27.60;67.40;;;;;;4945995;29;20447;-79
2021/05/10 10:28:24;;;;;;;2.97;1.90;;;27.60;67.40;;;;;;4947120;29;20519;-79
2021/05/10 10:30:59;;;;;;;4.93;2.00;;;27.60;67.00;;;;;;4947728;29;20467;-79
2021/05/10 10:33:31;;;;;;;2.30;1.67;;;27.50;66.70;;;;;;4946540;29;20514;-79
2021/05/10 10:36:00;;;;;;;6.07;1.67;;;27.40;66.70;;;;;;4947832;29;20425;-79
2021/05/10 10:38:29;;;;;;;2.50;2.30;;;27.40;66.40;;;;;;4941493;29;20508;-79
2021/05/10 10:41:22;;;;;;;3.00;1.93;;;27.30;66.40;;;;;;4940333;29;20500;-79
2021/05/10 10:43:50;;;;;;;2.03;1.83;;;27.30;66.20;;;;;;4942528;29;20428;-79
2021/05/10 10:46:23;;;;;;;3.07;2.00;;;27.30;66.40;;;;;;4942465;29;20468;-79
2021/05/10 10:48:52;;;;;;;2.73;1.83;;;27.20;66.30;;;;;;4940668;29;20447;-79
2021/05/10 10:51:20;;;;;;;5.63;2.30;;;27.10;66.20;;;;;;4942290;29;20515;-78
2021/05/10 10:53:49;;;;;;;4.10;2.30;;;27.00;66.00;;;;;;4940707;29;20879;-78
2021/05/10 10:56:17;;;;;;;2.47;1.90;;;27.10;65.60;;;;;;4940001;29;20235;-78
2021/05/10 10:58:46;;;;;;;2.93;1.83;;;27.20;65.60;;;;;;4941950;29;20899;-78
2021/05/10 11:01:19;;;;;;;2.00;1.80;;;27.20;65.60;;;;;;4942569;29;20456;-79
2021/05/10 11:03:48;;;;;;;3.10;1.70;;;27.20;65.60;;;;;;4941139;29;20777;-79
2021/05/10 11:06:16;;;;;;;3.13;2.37;;;27.30;65.80;;;;;;4943612;29;20902;-79
2021/05/10 11:08:45;;;;;;;3.00;2.40;;;27.20;66.30;;;;;;4940017;29;20480;-79
2021/05/10 11:11:14;;;;;;;4.67;1.97;;;27.10;66.70;;;;;;4941519;29;20440;-79
2021/05/10 11:13:42;;;;;;;5.07;2.40;;;27.00;67.00;;;;;;4942180;29;20503;-79
2021/05/10 11:16:10;;;;;;;6.00;2.33;;;26.90;67.30;;;;;;4941658;29;20420;-79
2021/05/10 11:18:47;;;;;;;7.67;2.33;;;26.80;67.60;;;;;;4939963;29;20525;-79
2021/05/10 11:21:42;;;;;;;3.90;2.20;;;26.60;67.90;;;;;;4941601;28;20522;-79
2021/05/10 11:24:12;;;;;;;2.50;2.30;;;26.40;68.00;;;;;;4941610;29;20529;-79
2021/05/10 11:26:45;;;;;;;4.90;2.07;;;26.20;68.20;;;;;;4940295;29;20458;-79
2021/05/10 11:29:44;;;;;;;2.37;1.80;;;26.10;68.50;;;;;;4941579;29;20460;-79
2021/05/10 11:32:29;;;;;;;3.27;1.80;;;25.90;68.80;;;;;;4941028;29;20573;-79
2021/05/10 11:35:17;;;;;;;2.80;1.80;;;25.70;68.60;;;;;;4941453;29;20463;-79
2021/05/10 11:37:45;;;;;;;2.90;1.73;;;25.60;68.70;;;;;;4939314;29;20459;-78
2021/05/10 11:40:12;;;;;;;2.10;1.90;;;25.60;68.80;;;;;;4939619;29;20534;-79
2021/05/10 11:42:40;;;;;;;5.13;1.60;;;25.50;68.70;;;;;;4940131;29;20448;-79
2021/05/10 11:45:07;;;;;;;2.63;1.93;;;25.50;68.90;;;;;;4939459;29;20553;-79
2021/05/10 11:47:34;;;;;;;3.63;1.90;;;25.40;69.00;;;;;;4939692;29;20467;-79
2021/05/10 11:50:04;;;;;;;2.83;2.63;;;25.30;69.10;;;;;;4940794;29;20545;-78
2021/05/10 11:52:31;;;;;;;5.00;1.73;;;25.30;69.30;;;;;;4941814;29;20474;-78
2021/05/10 11:55:03;;;;;;;3.87;1.70;;;25.30;69.30;;;;;;4939565;29;20451;-78
2021/05/10 11:57:33;;;;;;;2.80;1.30;;;25.20;69.10;;;;;;4942555;29;20932;-79
2021/05/10 12:00:04;;;;;;;2.63;1.40;;;25.20;69.20;;;;;;4940845;29;20475;-79
2021/05/10 12:02:34;;;;;;;1.60;1.47;;;25.20;69.30;;;;;;4942389;29;20427;-78
2021/05/10 12:05:04;;;;;;;4.93;1.40;;;25.20;69.60;;;;;;4943179;29;20491;-78
2021/05/10 12:07:33;;;;;;;2.80;1.53;;;25.20;69.80;;;;;;4940104;29;20489;-78
2021/05/10 12:10:03;;;;;;;2.27;1.27;;;25.30;69.90;;;;;;4940076;29;20502;-79
2021/05/10 12:12:35;;;;;;;3.37;1.20;;;25.40;69.80;;;;;;4941324;29;20467;-79
2021/05/10 12:15:12;;;;;;;1.40;1.30;;;25.40;69.90;;;;;;4941090;29;20428;-79
2021/05/10 12:17:40;;;;;;;5.70;1.70;;;25.40;69.80;;;;;;4942474;29;20464;-80
2021/05/10 12:20:09;;;;;;;3.05;1.55;;;25.40;69.80;;;;;;4941014;29;20967;-79
2021/05/10 12:22:39;;;;;;;3.40;1.33;;;25.50;69.40;;;;;;4938630;29;20219;-78
2021/05/10 12:25:19;;;;;;;1.33;1.00;;;25.50;69.40;;;;;;4936512;29;20435;-79
2021/05/10 12:27:56;;;;;;;1.30;1.00;;;25.50;69.10;;;;;;4936509;29;20519;-78
2021/05/10 12:30:29;;;;;;;2.83;1.50;;;25.60;68.90;;;;;;4934832;29;20937;-78
2021/05/10 12:33:00;;;;;;;1.30;1.00;;;25.60;68.60;;;;;;4936055;29;21001;-78
2021/05/10 12:35:29;;;;;;;2.77;1.10;;;25.70;68.40;;;;;;4936239;29;20907;-78
2021/05/10 12:37:58;;;;;;;4.77;1.20;;;25.70;68.30;;;;;;4934763;29;20447;-78
2021/05/10 12:40:28;;;;;;;1.40;1.10;;;25.70;68.00;;;;;;4935881;29;20463;-78
2021/05/10 12:43:12;;;;;;;2.30;1.40;;;25.60;68.00;;;;;;4936214;29;20453;-78
2021/05/10 12:45:42;;;;;;;2.03;1.00;;;25.60;68.00;;;;;;4934705;29;20533;-78
2021/05/10 12:48:29;;;;;;;2.70;0.93;;;25.60;67.90;;;;;;4935965;29;20444;-78
2021/05/10 12:51:05;;;;;;;1.80;1.20;;;25.50;67.60;;;;;;4936239;29;20533;-78
2021/05/10 12:53:34;;;;;;;1.47;0.90;;;25.40;67.40;;;;;;4934590;29;20998;-78
2021/05/10 12:56:04;;;;;;;2.13;0.80;;;25.30;67.40;;;;;;4936685;29;20417;-78
2021/05/10 12:58:36;;;;;;;2.60;1.27;;;25.10;67.40;;;;;;4934907;29;20454;-78
2021/05/10 13:01:12;;;;;;;1.20;1.10;;;25.10;67.40;;;;;;4935018;29;20814;-78